Time;durP1;ratioP1;P1;durP2;ratioP2;P2;SDS_P1;SDS_P2;PMS_P1;PMS_P2;Temp;Humidity;BMP_temperature;BMP_pressure;BME280_temperature;BME280_humidity;BME280_pressure;Samples;Min_cycle;Max_cycle;Signal;HPM_P1;HPM_P2
2022/03/21 00:01:32;;;;;;;;;;;3.40;99.90;;;;;;4941643;29;20235;-82
2022/03/21 00:04:00;;;;;;;;;;;2.30;99.90;;;;;;4946340;29;19927;-82
2022/03/21 00:06:28;;;;;;;;;;;3.50;99.90;;;;;;4949132;29;19931;-81
2022/03/21 00:08:57;;;;;;;;;;;3.50;99.90;;;;;;4950046;29;19927;-85
2022/03/21 00:11:26;;;;;;;;;;;3.50;99.90;;;;;;4931520;29;19942;-84
2022/03/21 00:13:55;;;;;;;;;;;2.20;99.90;;;;;;4949305;29;19931;-85
2022/03/21 00:16:23;;;;;;;;;;;3.40;99.90;;;;;;4948612;29;20136;-82
2022/03/21 00:18:52;;;;;;;;;;;3.30;99.90;;;;;;4946653;29;20011;-84
2022/03/21 00:21:20;;;;;;;;;;;3.30;99.90;;;;;;4946962;29;19933;-81
2022/03/21 00:23:49;;;;;;;;;;;3.00;99.90;;;;;;4946805;29;19931;-81
2022/03/21 00:26:17;;;;;;;;;;;3.30;99.90;;;;;;4946794;29;19939;-82
2022/03/21 00:28:44;;;;;;;;;;;3.30;99.90;;;;;;4930714;29;19931;-82
2022/03/21 00:31:13;;;;;;;;;;;3.30;99.90;;;;;;4947778;29;19931;-79
2022/03/21 00:33:50;;;;;;;;;;;3.30;99.90;;;;;;4931242;29;19937;-82
2022/03/21 00:36:20;;;;;;;;;;;2.60;99.90;;;;;;4930392;29;19937;-81
2022/03/21 00:39:08;;;;;;;;;;;3.20;99.90;;;;;;4933665;29;19931;-81
2022/03/21 00:41:36;;;;;;;;;;;3.30;99.90;;;;;;4913935;29;19927;-81
2022/03/21 00:44:04;;;;;;;;;;;1.60;99.90;;;;;;4931383;29;19933;-81
2022/03/21 00:46:32;;;;;;;;;;;3.20;99.90;;;;;;4930797;29;19937;-81
2022/03/21 00:49:01;;;;;;;;;;;3.10;99.90;;;;;;4947936;29;19930;-81
2022/03/21 00:51:29;;;;;;;;;;;3.00;99.90;;;;;;4915605;29;20365;-78
2022/03/21 00:53:57;;;;;;;;;;;2.90;99.90;;;;;;4930626;29;19927;-81
2022/03/21 00:56:25;;;;;;;;;;;3.20;99.90;;;;;;4929289;29;19934;-80
2022/03/21 00:58:53;;;;;;;;;;;2.90;99.90;;;;;;4946850;29;19933;-82
2022/03/21 01:01:23;;;;;;;;;;;3.50;99.90;;;;;;4947246;29;19933;-81
2022/03/21 01:03:50;;;;;;;;;;;2.80;99.90;;;;;;4947544;29;20461;-81
2022/03/21 01:06:18;;;;;;;;;;;2.80;99.90;;;;;;4931182;29;19930;-81
2022/03/21 01:08:46;;;;;;;;;;;2.80;99.90;;;;;;4948699;29;19927;-81
2022/03/21 01:11:14;;;;;;;;;;;2.80;99.90;;;;;;4929665;29;19934;-82
2022/03/21 01:13:42;;;;;;;;;;;2.80;99.90;;;;;;4930317;29;19922;-82
2022/03/21 01:16:10;;;;;;;;;;;2.80;99.90;;;;;;4929644;29;20396;-81
2022/03/21 01:18:39;;;;;;;;;;;2.70;99.90;;;;;;4930260;29;19931;-81
2022/03/21 01:21:07;;;;;;;;;;;2.70;99.90;;;;;;4946925;29;20121;-83
2022/03/21 01:23:34;;;;;;;;;;;2.70;99.90;;;;;;4947279;29;19934;-83
2022/03/21 01:26:02;;;;;;;;;;;2.60;99.90;;;;;;4929846;29;19927;-81
2022/03/21 01:28:30;;;;;;;;;;;2.60;99.90;;;;;;4945378;29;19933;-81
2022/03/21 01:30:58;;;;;;;;;;;2.60;99.90;;;;;;4911088;29;20283;-81
2022/03/21 01:33:30;;;;;;;;;;;2.50;99.90;;;;;;4946486;29;19933;-81
2022/03/21 01:35:58;;;;;;;;;;;2.70;99.90;;;;;;4946888;29;19937;-81
2022/03/21 01:38:26;;;;;;;;;;;2.50;99.90;;;;;;4913250;29;20012;-80
2022/03/21 01:40:54;;;;;;;;;;;2.60;99.90;;;;;;4945522;29;19937;-81
2022/03/21 01:43:22;;;;;;;;;;;2.60;99.90;;;;;;4929891;29;19926;-81
2022/03/21 01:45:50;;;;;;;;;;;2.30;99.90;;;;;;4928765;29;19934;-82
2022/03/21 01:48:19;;;;;;;;;;;2.50;99.90;;;;;;4926272;29;19934;-82
2022/03/21 01:50:46;;;;;;;;;;;2.50;99.90;;;;;;4929285;29;19938;-82
2022/03/21 01:56:02;;;;;;;;;;;2.50;99.90;;;;;;4945749;29;19927;-81
2022/03/21 01:58:30;;;;;;;;;;;2.00;99.90;;;;;;4928964;29;19930;-81
2022/03/21 02:00:58;;;;;;;;;;;2.50;99.90;;;;;;4946275;29;19930;-81
2022/03/21 02:03:26;;;;;;;;;;;2.40;99.90;;;;;;4898013;29;19946;-81
2022/03/21 02:05:54;;;;;;;;;;;2.40;99.90;;;;;;4910372;29;19927;-81
2022/03/21 02:08:22;;;;;;;;;;;2.30;99.90;;;;;;4930822;29;20037;-81
2022/03/21 02:10:51;;;;;;;;;;;2.40;99.90;;;;;;4929495;29;19927;-81
2022/03/21 02:13:20;;;;;;;;;;;2.20;99.90;;;;;;4929590;29;19935;-80
2022/03/21 02:15:48;;;;;;;;;;;2.20;99.90;;;;;;4913762;29;19931;-81
2022/03/21 02:18:17;;;;;;;;;;;2.40;99.90;;;;;;4929356;29;19927;-82
2022/03/21 02:20:47;;;;;;;;;;;2.10;99.90;;;;;;4946347;29;19930;-81
2022/03/21 02:23:30;;;;;;;;;;;2.10;99.90;;;;;;4929684;29;19931;-83
2022/03/21 02:25:58;;;;;;;;;;;2.00;99.90;;;;;;4929237;29;19926;-82
2022/03/21 02:28:28;;;;;;;;;;;2.00;99.90;;;;;;4928610;29;19934;-81
2022/03/21 02:30:57;;;;;;;;;;;1.90;99.90;;;;;;4913124;29;19934;-81
2022/03/21 02:33:26;;;;;;;;;;;2.00;99.90;;;;;;4945590;29;20331;-81
2022/03/21 02:35:56;;;;;;;;;;;2.00;99.90;;;;;;4928333;29;19926;-81
2022/03/21 02:38:24;;;;;;;;;;;1.80;99.90;;;;;;4929490;29;19938;-80
2022/03/21 02:40:53;;;;;;;;;;;1.80;99.90;;;;;;4928077;29;19933;-80
2022/03/21 02:43:23;;;;;;;;;;;0.40;99.90;;;;;;4928802;29;19927;-80
2022/03/21 02:45:51;;;;;;;;;;;1.50;99.90;;;;;;4929208;29;19927;-82
2022/03/21 02:48:20;;;;;;;;;;;1.70;99.90;;;;;;4947330;29;19931;-79
2022/03/21 02:50:59;;;;;;;;;;;1.70;99.90;;;;;;4946247;29;19945;-81
2022/03/21 02:53:29;;;;;;;;;;;1.70;99.90;;;;;;4946880;29;20033;-80
2022/03/21 02:55:57;;;;;;;;;;;1.60;99.90;;;;;;4947115;29;19945;-79
2022/03/21 02:58:25;;;;;;;;;;;1.60;99.90;;;;;;4929649;29;19926;-82
2022/03/21 03:01:04;;;;;;;;;;;1.70;99.90;;;;;;4932513;29;19938;-80
2022/03/21 03:03:32;;;;;;;;;;;1.60;99.90;;;;;;4949375;29;19934;-81
2022/03/21 03:06:00;;;;;;;;;;;1.60;99.90;;;;;;4946373;29;19937;-80
2022/03/21 03:08:28;;;;;;;;;;;1.50;99.90;;;;;;4914738;29;19927;-81
2022/03/21 03:10:56;;;;;;;;;;;1.50;99.90;;;;;;4911683;29;19934;-81
2022/03/21 03:13:24;;;;;;;;;;;1.50;99.90;;;;;;4913202;29;19927;-79
2022/03/21 03:15:53;;;;;;;;;;;1.70;99.90;;;;;;4930264;29;19933;-81
2022/03/21 03:18:21;;;;;;;;;;;1.40;99.90;;;;;;4930253;29;19941;-82
2022/03/21 03:20:50;;;;;;;;;;;1.40;99.90;;;;;;4930012;29;19937;-81
2022/03/21 03:23:18;;;;;;;;;;;1.20;99.90;;;;;;4947326;29;19927;-83
2022/03/21 03:25:46;;;;;;;;;;;1.40;99.90;;;;;;4913654;29;19927;-82
2022/03/21 03:32:03;;;;;;;;;;;1.40;99.90;;;;;;5468323;23;19934;-83
2022/03/21 03:34:33;;;;;;;;;;;1.40;99.90;;;;;;4927927;29;19927;-81
2022/03/21 03:37:01;;;;;;;;;;;1.40;99.90;;;;;;4912466;29;19941;-81
2022/03/21 03:39:29;;;;;;;;;;;1.40;99.90;;;;;;4950147;29;19931;-82
2022/03/21 03:41:56;;;;;;;;;;;1.60;99.90;;;;;;4932921;29;20000;-81
2022/03/21 03:44:25;;;;;;;;;;;1.30;99.90;;;;;;4916728;29;19937;-81
2022/03/21 03:46:53;;;;;;;;;;;1.30;99.90;;;;;;4932478;29;19927;-81
2022/03/21 03:49:21;;;;;;;;;;;1.40;99.90;;;;;;4914301;29;19927;-83
2022/03/21 03:51:49;;;;;;;;;;;1.80;99.90;;;;;;4931504;29;19939;-81
2022/03/21 03:54:18;;;;;;;;;;;0.20;99.90;;;;;;4899631;29;19931;-83
2022/03/21 03:56:45;;;;;;;;;;;1.20;99.90;;;;;;4915010;29;19927;-85
2022/03/21 03:59:14;;;;;;;;;;;1.20;99.90;;;;;;4914209;29;19931;-82
2022/03/21 04:01:42;;;;;;;;;;;1.20;99.90;;;;;;4924987;29;19934;-82
2022/03/21 04:04:10;;;;;;;;;;;1.10;99.90;;;;;;4903711;29;20432;-82
2022/03/21 04:06:39;;;;;;;;;;;1.20;99.90;;;;;;4913875;29;20273;-82
2022/03/21 04:09:07;;;;;;;;;;;1.30;99.90;;;;;;4931768;29;19930;-82
2022/03/21 04:11:35;;;;;;;;;;;1.10;99.90;;;;;;4932450;29;19930;-81
2022/03/21 04:14:03;;;;;;;;;;;1.10;99.90;;;;;;4913487;29;19964;-81
2022/03/21 04:16:31;;;;;;;;;;;1.20;99.90;;;;;;4929944;29;19941;-81
2022/03/21 04:19:00;;;;;;;;;;;1.10;99.90;;;;;;4931897;29;19933;-81
2022/03/21 04:21:30;;;;;;;;;;;1.20;99.90;;;;;;4914418;29;19942;-81
2022/03/21 04:23:58;;;;;;;;;;;1.10;99.90;;;;;;4943342;29;19941;-82
2022/03/21 04:26:26;;;;;;;;;;;1.00;99.90;;;;;;4907758;29;19927;-82
2022/03/21 04:28:55;;;;;;;;;;;1.00;99.90;;;;;;4930428;29;19934;-81
2022/03/21 04:31:23;;;;;;;;;;;1.00;99.90;;;;;;4931713;29;19995;-81
2022/03/21 04:33:52;;;;;;;;;;;1.10;99.90;;;;;;4928686;29;19927;-81
2022/03/21 04:36:20;;;;;;;;;;;1.00;99.90;;;;;;4913860;29;19934;-82
2022/03/21 04:38:48;;;;;;;;;;;1.00;99.90;;;;;;4930435;29;19953;-82
2022/03/21 04:41:16;;;;;;;;;;;1.00;99.90;;;;;;4928360;29;19934;-81
2022/03/21 04:43:44;;;;;;;;;;;0.90;99.90;;;;;;4944573;29;19935;-84
2022/03/21 04:46:12;;;;;;;;;;;0.90;99.90;;;;;;4946716;29;19927;-84
2022/03/21 04:48:39;;;;;;;;;;;0.90;99.90;;;;;;4930010;29;19931;-81
2022/03/21 04:51:07;;;;;;;;;;;0.90;99.90;;;;;;4929009;29;19954;-82
2022/03/21 04:53:35;;;;;;;;;;;0.90;99.90;;;;;;4929868;29;19934;-82
2022/03/21 04:56:05;;;;;;;;;;;1.10;99.90;;;;;;4929572;29;19927;-84
2022/03/21 04:58:33;;;;;;;;;;;1.00;99.90;;;;;;4930457;29;20408;-83
2022/03/21 05:01:01;;;;;;;;;;;0.80;99.90;;;;;;4948338;29;19933;-83
2022/03/21 05:03:30;;;;;;;;;;;0.80;99.90;;;;;;4944534;29;19937;-83
2022/03/21 05:05:58;;;;;;;;;;;0.80;99.90;;;;;;4947586;29;19937;-82
2022/03/21 05:08:26;;;;;;;;;;;0.80;99.90;;;;;;4916002;29;19927;-82
2022/03/21 05:10:57;;;;;;;;;;;0.80;99.90;;;;;;4947916;29;19927;-81
2022/03/21 05:13:25;;;;;;;;;;;0.80;99.90;;;;;;4948581;29;19933;-81
2022/03/21 05:15:53;;;;;;;;;;;0.80;99.90;;;;;;4948282;29;19938;-81
2022/03/21 05:18:22;;;;;;;;;;;0.70;99.90;;;;;;4942240;29;19939;-82
2022/03/21 05:20:50;;;;;;;;;;;0.70;99.90;;;;;;4927774;29;19931;-81
2022/03/21 05:31:40;;;;;;;;;;;0.70;99.90;;;;;;4933184;29;20300;-81
2022/03/21 05:37:05;;;;;;;;;;;0.90;99.90;;;;;;4912721;29;19931;-82
2022/03/21 05:39:33;;;;;;;;;;;0.70;99.90;;;;;;4912518;29;19937;-79
2022/03/21 05:42:04;;;;;;;;;;;0.70;99.90;;;;;;4900770;29;19939;-84
2022/03/21 05:44:31;;;;;;;;;;;0.80;99.90;;;;;;4913790;29;19931;-82
2022/03/21 05:46:59;;;;;;;;;;;-0.30;99.90;;;;;;4913069;29;19950;-82
2022/03/21 05:49:27;;;;;;;;;;;0.70;99.90;;;;;;4887219;29;20304;-81
2022/03/21 05:51:54;;;;;;;;;;;0.70;99.90;;;;;;4926629;29;19931;-81
2022/03/21 05:54:24;;;;;;;;;;;0.70;99.90;;;;;;4930896;29;19934;-81
2022/03/21 05:56:51;;;;;;;;;;;0.80;99.90;;;;;;4917208;29;19926;-83
2022/03/21 06:02:08;;;;;;;;;;;0.80;99.90;;;;;;4931218;29;19933;-81
2022/03/21 06:04:36;;;;;;;;;;;0.80;99.90;;;;;;4944257;29;19931;-82
2022/03/21 06:07:04;;;;;;;;;;;-0.50;99.90;;;;;;4917806;29;19931;-81
2022/03/21 06:09:32;;;;;;;;;;;0.80;99.90;;;;;;5006887;23;19938;-81
2022/03/21 06:12:01;;;;;;;;;;;0.90;99.90;;;;;;4919241;29;19927;-80
2022/03/21 06:14:29;;;;;;;;;;;0.90;99.90;;;;;;4924896;29;19931;-82
2022/03/21 06:17:04;;;;;;;;;;;0.90;99.90;;;;;;4940353;29;19927;-82
2022/03/21 06:19:34;;;;;;;;;;;0.90;99.90;;;;;;4938270;29;20665;-82
2022/03/21 06:22:01;;;;;;;;;;;0.90;99.90;;;;;;4929878;29;19941;-82
2022/03/21 06:24:29;;;;;;;;;;;0.90;99.90;;;;;;4916448;29;19937;-81
2022/03/21 06:26:58;;;;;;;;;;;0.90;99.90;;;;;;4921256;29;19934;-81
2022/03/21 06:29:28;;;;;;;;;;;1.50;99.90;;;;;;4929833;29;19930;-82
2022/03/21 06:31:56;;;;;;;;;;;1.20;99.90;;;;;;4947517;29;19942;-82
2022/03/21 06:34:25;;;;;;;;;;;1.00;99.90;;;;;;4914126;29;19927;-81
2022/03/21 06:36:54;;;;;;;;;;;1.10;99.90;;;;;;4947037;29;19937;-83
2022/03/21 06:39:22;;;;;;;;;;;1.10;99.90;;;;;;4946973;29;19931;-80
2022/03/21 06:41:53;;;;;;;;;;;1.30;99.90;;;;;;4946763;29;20319;-81
2022/03/21 06:44:22;;;;;;;;;;;1.20;99.90;;;;;;4949751;29;19927;-82
2022/03/21 06:46:50;;;;;;;;;;;1.30;99.90;;;;;;4905506;29;19931;-82
2022/03/21 06:49:20;;;;;;;;;;;1.30;99.90;;;;;;4929851;29;19946;-81
2022/03/21 06:51:49;;;;;;;;;;;1.30;99.90;;;;;;4921881;29;19931;-81
2022/03/21 06:54:17;;;;;;;;;;;1.40;99.90;;;;;;4929801;29;19934;-82
2022/03/21 06:56:46;;;;;;;;;;;1.40;99.90;;;;;;4937334;29;20355;-81
2022/03/21 06:59:15;;;;;;;;;;;1.50;99.90;;;;;;4919858;29;19941;-81
2022/03/21 07:01:45;;;;;;;;;;;1.60;99.90;;;;;;4948103;29;19930;-80
2022/03/21 07:04:14;;;;;;;;;;;1.60;99.90;;;;;;4946585;29;19927;-82
2022/03/21 07:06:42;;;;;;;;;;;1.70;99.90;;;;;;4927753;29;19930;-79
2022/03/21 07:09:11;;;;;;;;;;;1.70;99.90;;;;;;4928561;29;19927;-80
2022/03/21 07:11:39;;;;;;;;;;;1.70;99.90;;;;;;4924033;29;19938;-80
2022/03/21 07:14:13;;;;;;;;;;;1.80;99.90;;;;;;4923597;29;19939;-81
2022/03/21 07:16:40;;;;;;;;;;;2.00;99.90;;;;;;4939276;29;19931;-81
2022/03/21 07:19:10;;;;;;;;;;;3.10;99.90;;;;;;4940820;29;20285;-81
2022/03/21 07:21:40;;;;;;;;;;;2.20;99.90;;;;;;4946671;29;19942;-81
2022/03/21 07:24:09;;;;;;;;;;;2.40;99.90;;;;;;4927699;29;19927;-78
2022/03/21 07:26:38;;;;;;;;;;;2.30;99.90;;;;;;4946257;29;19927;-78
2022/03/21 07:29:06;;;;;;;;;;;2.30;99.90;;;;;;4939766;29;19935;-81
2022/03/21 07:31:38;;;;;;;;;;;2.60;99.90;;;;;;4942679;29;19930;-79
2022/03/21 07:34:07;;;;;;;;;;;2.50;99.90;;;;;;4941759;29;19930;-77
2022/03/21 07:37:01;;;;;;;;;;;2.60;99.90;;;;;;4930133;29;20207;-82
2022/03/21 07:39:29;;;;;;;;;;;3.00;99.90;;;;;;4898849;29;20036;-84
2022/03/21 07:42:04;;;;;;;;;;;2.80;99.90;;;;;;4887196;29;19931;-82
2022/03/21 07:47:24;;;;;;;;;;;3.00;99.90;;;;;;4888094;29;19934;-86
2022/03/21 07:50:02;;;;;;;;;;;3.10;99.90;;;;;;4904630;29;19934;-83
2022/03/21 07:52:39;;;;;;;;;;;3.30;99.90;;;;;;4896035;29;19931;-84
2022/03/21 07:55:11;;;;;;;;;;;3.40;99.90;;;;;;4892534;29;19927;-88
2022/03/21 07:57:39;;;;;;;;;;;3.50;99.90;;;;;;4888572;29;19942;-83
2022/03/21 08:00:11;;;;;;;;;;;3.40;99.90;;;;;;4908113;29;19933;-84
2022/03/21 08:02:45;;;;;;;;;;;3.80;99.90;;;;;;4895933;29;19935;-80
2022/03/21 08:05:14;;;;;;;;;;;3.90;99.90;;;;;;4910364;29;19931;-84
2022/03/21 08:07:42;;;;;;;;;;;4.00;99.90;;;;;;4899695;29;20357;-85
2022/03/21 08:10:10;;;;;;;;;;;4.10;99.90;;;;;;4909515;29;19927;-84
2022/03/21 08:12:42;;;;;;;;;;;4.30;99.90;;;;;;4894358;29;19938;-84
2022/03/21 08:15:14;;;;;;;;;;;5.10;99.90;;;;;;4899943;29;19931;-84
2022/03/21 08:17:49;;;;;;;;;;;4.50;99.90;;;;;;4893657;29;20652;-84
2022/03/21 08:20:20;;;;;;;;;;;4.60;99.90;;;;;;4886142;29;19934;-85
2022/03/21 08:22:50;;;;;;;;;;;4.80;99.90;;;;;;4884484;29;20310;-81
2022/03/21 08:25:20;;;;;;;;;;;4.90;99.90;;;;;;4884008;29;19938;-81
2022/03/21 08:27:48;;;;;;;;;;;5.00;99.90;;;;;;4899990;29;19935;-80
2022/03/21 08:30:16;;;;;;;;;;;5.10;99.90;;;;;;4902825;29;20311;-84
2022/03/21 08:32:47;;;;;;;;;;;5.30;99.90;;;;;;4910324;29;19935;-83
2022/03/21 08:35:16;;;;;;;;;;;5.40;99.90;;;;;;4899324;29;20391;-83
2022/03/21 08:37:44;;;;;;;;;;;5.40;99.90;;;;;;4897705;29;19931;-83
2022/03/21 08:40:13;;;;;;;;;;;5.60;99.90;;;;;;4884164;29;19927;-83
2022/03/21 08:42:40;;;;;;;;;;;5.70;99.90;;;;;;4908666;29;19938;-83
2022/03/21 08:45:09;;;;;;;;;;;5.80;99.90;;;;;;4922479;29;19928;-84
2022/03/21 08:47:37;;;;;;;;;;;5.90;99.90;;;;;;4907678;29;19927;-83
2022/03/21 08:50:06;;;;;;;;;;;6.10;99.90;;;;;;4885064;29;20295;-83
2022/03/21 08:52:34;;;;;;;;;;;6.20;99.90;;;;;;4884678;29;19932;-88
2022/03/21 08:55:02;;;;;;;;;;;6.30;99.90;;;;;;4898899;29;19939;-84
2022/03/21 08:57:30;;;;;;;;;;;6.40;99.90;;;;;;4866462;29;19931;-84
2022/03/21 08:59:58;;;;;;;;;;;6.50;99.90;;;;;;4908234;29;20575;-82
2022/03/21 09:02:26;;;;;;;;;;;6.60;99.90;;;;;;4897028;29;19935;-85
2022/03/21 09:04:54;;;;;;;;;;;6.60;99.90;;;;;;4898036;29;19935;-83
2022/03/21 09:07:22;;;;;;;;;;;6.80;99.90;;;;;;4883161;29;19928;-83
2022/03/21 09:09:50;;;;;;;;;;;6.90;99.90;;;;;;4882057;29;19931;-84
2022/03/21 09:12:17;;;;;;;;;;;7.10;99.90;;;;;;4884709;29;19927;-84
2022/03/21 09:14:45;;;;;;;;;;;7.20;99.90;;;;;;4883704;29;19932;-84
2022/03/21 09:17:15;;;;;;;;;;;7.30;99.90;;;;;;4910326;29;19935;-84
2022/03/21 09:19:44;;;;;;;;;;;7.40;99.90;;;;;;4899290;29;19935;-86
2022/03/21 09:22:12;;;;;;;;;;;7.60;99.90;;;;;;4893900;29;19931;-82
2022/03/21 09:24:40;;;;;;;;;;;7.70;99.90;;;;;;4917167;29;19931;-84
2022/03/21 09:27:08;;;;;;;;;;;7.90;99.90;;;;;;4917421;29;19934;-85
2022/03/21 09:29:36;;;;;;;;;;;8.00;99.90;;;;;;4900026;29;19927;-82
2022/03/21 09:32:04;;;;;;;;;;;8.10;99.90;;;;;;4914622;29;19950;-84
2022/03/21 09:34:39;;;;;;;;;;;8.20;99.90;;;;;;4883155;29;20782;-84
2022/03/21 09:37:07;;;;;;;;;;;8.40;99.90;;;;;;4898178;29;19934;-87
2022/03/21 09:39:36;;;;;;;;;;;9.10;99.90;;;;;;4908084;29;19932;-84
2022/03/21 09:42:03;;;;;;;;;;;8.60;99.90;;;;;;4903802;29;19938;-83
2022/03/21 09:44:31;;;;;;;;;;;8.60;99.90;;;;;;4903944;29;20323;-84
2022/03/21 09:48:08;;;;;;;;;;;8.80;99.90;;;;;;4881799;29;19935;-84
2022/03/21 09:49:51;;;;;;;;;;;9.00;99.90;;;;;;4898854;29;20567;-84
2022/03/21 09:52:20;;;;;;;;;;;9.10;99.90;;;;;;4907219;29;19927;-83
2022/03/21 09:54:49;;;;;;;;;;;9.30;99.90;;;;;;4896415;29;20306;-83
2022/03/21 09:57:17;;;;;;;;;;;9.40;99.90;;;;;;4909333;29;19934;-84
2022/03/21 09:59:45;;;;;;;;;;;9.50;99.90;;;;;;4897381;29;20383;-83
2022/03/21 10:02:17;;;;;;;;;;;9.70;99.90;;;;;;4913099;29;19927;-83
2022/03/21 10:04:46;;;;;;;;;;;9.70;99.90;;;;;;4905644;29;19934;-83
2022/03/21 10:07:15;;;;;;;;;;;10.00;99.90;;;;;;4897470;29;20013;-85
2022/03/21 10:10:03;;;;;;;;;;;10.20;99.90;;;;;;4905825;29;19947;-85
2022/03/21 10:12:40;;;;;;;;;;;10.30;99.90;;;;;;4889261;29;19927;-86
2022/03/21 10:15:09;;;;;;;;;;;10.50;99.90;;;;;;4895124;29;19927;-82
2022/03/21 10:17:38;;;;;;;;;;;10.70;99.90;;;;;;4892772;29;19943;-84
2022/03/21 10:20:08;;;;;;;;;;;10.80;99.90;;;;;;4887330;29;19927;-82
2022/03/21 10:22:43;;;;;;;;;;;11.00;99.90;;;;;;4906199;29;19927;-84
2022/03/21 10:25:15;;;;;;;;;;;11.10;99.40;;;;;;4904413;29;19934;-83
2022/03/21 10:27:44;;;;;;;;;;;11.30;99.60;;;;;;4908615;29;19939;-85
2022/03/21 10:30:21;;;;;;;;;;;11.40;99.00;;;;;;4898396;29;20391;-82
2022/03/21 10:32:53;;;;;;;;;;;11.50;98.50;;;;;;4907892;29;19931;-85
2022/03/21 10:35:24;;;;;;;;;;;11.60;97.70;;;;;;4905708;29;19942;-84
2022/03/21 10:37:58;;;;;;;;;;;11.80;98.60;;;;;;4907046;29;20287;-84
2022/03/21 10:40:30;;;;;;;;;;;11.90;97.80;;;;;;4906413;29;19935;-86
2022/03/21 10:43:04;;;;;;;;;;;12.00;97.40;;;;;;4895559;29;20267;-84
2022/03/21 10:45:41;;;;;;;;;;;12.20;95.60;;;;;;4897850;29;19928;-83
2022/03/21 10:48:10;;;;;;;;;;;12.30;95.70;;;;;;4904918;29;20178;-84
2022/03/21 10:50:40;;;;;;;;;;;12.40;96.40;;;;;;4892375;29;19943;-84
2022/03/21 10:53:11;;;;;;;;;;;12.50;95.70;;;;;;4909032;29;19939;-83
2022/03/21 10:55:48;;;;;;;;;;;12.60;95.30;;;;;;4883750;29;20378;-82
2022/03/21 10:58:17;;;;;;;;;;;12.70;95.00;;;;;;4909744;29;20121;-83
2022/03/21 11:00:44;;;;;;;;;;;12.80;94.20;;;;;;4893858;29;19932;-84
2022/03/21 11:03:15;;;;;;;;;;;12.90;95.10;;;;;;4908360;29;19938;-84
2022/03/21 11:05:45;;;;;;;;;;;13.00;93.70;;;;;;4908120;29;19962;-85
2022/03/21 11:08:16;;;;;;;;;;;13.10;93.60;;;;;;4895263;29;19951;-85
2022/03/21 11:10:45;;;;;;;;;;;13.20;93.70;;;;;;4910201;29;20312;-85
2022/03/21 11:13:13;;;;;;;;;;;13.30;93.00;;;;;;4910557;29;19938;-87
2022/03/21 11:15:41;;;;;;;;;;;13.40;92.40;;;;;;4918753;29;20495;-84
2022/03/21 11:18:10;;;;;;;;;;;13.50;92.80;;;;;;4921637;29;19931;-84
2022/03/21 11:20:38;;;;;;;;;;;13.60;92.80;;;;;;4889161;29;19934;-84
2022/03/21 11:23:06;;;;;;;;;;;13.70;92.60;;;;;;4886708;29;19935;-84
2022/03/21 11:25:36;;;;;;;;;;;13.70;92.80;;;;;;4904180;29;19939;-84
2022/03/21 11:28:23;;;;;;;;;;;13.90;92.50;;;;;;4899158;29;19932;-83
2022/03/21 11:30:56;;;;;;;;;;;14.00;92.20;;;;;;4907599;29;19927;-82
2022/03/21 11:33:30;;;;;;;;;;;14.00;92.60;;;;;;4907252;29;20395;-82
2022/03/21 11:35:59;;;;;;;;;;;14.20;92.30;;;;;;4910132;29;19928;-83
2022/03/21 11:38:28;;;;;;;;;;;14.50;91.70;;;;;;4911065;29;19934;-83
2022/03/21 11:41:11;;;;;;;;;;;14.40;91.60;;;;;;4909667;29;19927;-84
2022/03/21 11:43:43;;;;;;;;;;;14.50;91.30;;;;;;4909385;29;19939;-83
2022/03/21 11:46:29;;;;;;;;;;;14.60;92.00;;;;;;4896765;29;19928;-81
2022/03/21 11:49:03;;;;;;;;;;;14.70;91.10;;;;;;4909527;29;20425;-87
2022/03/21 11:51:35;;;;;;;;;;;14.80;91.40;;;;;;4881226;29;19927;-83
2022/03/21 11:54:03;;;;;;;;;;;14.90;90.60;;;;;;4909136;29;19935;-83
2022/03/21 11:56:40;;;;;;;;;;;15.00;91.70;;;;;;4907114;29;19927;-83
2022/03/21 11:59:29;;;;;;;;;;;15.10;90.30;;;;;;4893254;29;19931;-84
2022/03/21 12:01:57;;;;;;;;;;;15.20;90.60;;;;;;4906275;29;19935;-84
2022/03/21 12:04:25;;;;;;;;;;;15.20;90.50;;;;;;4897029;29;19931;-85
2022/03/21 12:07:00;;;;;;;;;;;15.40;90.60;;;;;;4911429;29;19931;-83
2022/03/21 12:09:46;;;;;;;;;;;15.40;88.70;;;;;;4893966;29;20313;-84
2022/03/21 12:12:15;;;;;;;;;;;15.50;89.30;;;;;;4898107;29;20418;-84
2022/03/21 12:14:45;;;;;;;;;;;15.60;89.20;;;;;;4895261;29;19935;-87
2022/03/21 12:17:14;;;;;;;;;;;15.60;90.00;;;;;;4897476;29;19931;-84
2022/03/21 12:19:48;;;;;;;;;;;15.60;89.30;;;;;;4893590;29;19931;-85
2022/03/21 12:22:37;;;;;;;;;;;15.60;88.80;;;;;;4883071;29;20409;-84
2022/03/21 12:25:14;;;;;;;;;;;15.60;90.10;;;;;;4900083;29;19938;-88
2022/03/21 12:27:57;;;;;;;;;;;15.70;89.40;;;;;;4910439;29;20531;-84
2022/03/21 12:32:52;;;;;;;;;;;15.90;90.10;;;;;;4907293;29;20295;-89
2022/03/21 12:35:32;;;;;;;;;;;16.00;90.30;;;;;;4894774;29;19934;-83
2022/03/21 12:38:00;;;;;;;;;;;16.10;89.10;;;;;;4895423;29;20394;-83
2022/03/21 12:40:28;;;;;;;;;;;16.20;89.70;;;;;;4910020;29;20109;-86
2022/03/21 12:42:57;;;;;;;;;;;16.30;89.10;;;;;;4911271;29;19927;-84
2022/03/21 12:45:26;;;;;;;;;;;16.30;89.20;;;;;;4906567;29;19947;-86
2022/03/21 12:47:59;;;;;;;;;;;16.40;89.50;;;;;;4908355;29;19958;-84
2022/03/21 12:50:28;;;;;;;;;;;16.40;89.00;;;;;;4911569;29;20514;-84
2022/03/21 12:53:00;;;;;;;;;;;16.50;88.90;;;;;;4897618;29;20001;-83
2022/03/21 12:55:28;;;;;;;;;;;16.50;88.30;;;;;;4909086;29;19927;-83
2022/03/21 12:57:57;;;;;;;;;;;16.50;88.50;;;;;;4889939;29;19927;-87
2022/03/21 13:00:27;;;;;;;;;;;16.50;88.20;;;;;;4893915;29;19935;-84
2022/03/21 13:02:57;;;;;;;;;;;16.50;87.30;;;;;;4905797;29;19935;-83
2022/03/21 13:11:05;;;;;;;;;;;16.60;85.80;;;;;;4880228;29;19938;-84
2022/03/21 13:13:41;;;;;;;;;;;16.60;87.20;;;;;;4906693;29;19927;-83
2022/03/21 13:16:11;;;;;;;;;;;16.60;86.60;;;;;;4893268;29;19931;-83
2022/03/21 13:18:39;;;;;;;;;;;16.80;86.50;;;;;;4908172;29;20187;-89
2022/03/21 13:21:07;;;;;;;;;;;16.90;87.40;;;;;;4898871;29;19927;-91
2022/03/21 13:23:35;;;;;;;;;;;17.10;86.30;;;;;;4880407;29;19946;-83
2022/03/21 13:26:10;;;;;;;;;;;17.20;86.20;;;;;;4907503;29;19931;-87
2022/03/21 13:28:41;;;;;;;;;;;17.30;85.60;;;;;;4880674;29;20334;-84
2022/03/21 13:31:15;;;;;;;;;;;17.50;86.30;;;;;;4889630;29;19931;-85
2022/03/21 13:33:58;;;;;;;;;;;17.60;85.50;;;;;;4880994;29;19931;-85
2022/03/21 13:36:27;;;;;;;;;;;17.80;84.40;;;;;;4895122;29;20286;-84
2022/03/21 13:39:07;;;;;;;;;;;18.00;83.90;;;;;;4889278;29;19935;-86
2022/03/21 13:41:53;;;;;;;;;;;18.10;83.50;;;;;;4907790;29;19931;-89
2022/03/21 13:44:24;;;;;;;;;;;18.30;82.50;;;;;;4885819;29;19942;-86
2022/03/21 13:47:06;;;;;;;;;;;18.50;82.90;;;;;;4912516;29;20025;-84
2022/03/21 13:49:43;;;;;;;;;;;18.60;82.00;;;;;;4900466;29;19932;-86
2022/03/21 13:52:14;;;;;;;;;;;17.80;81.10;;;;;;4904444;29;19942;-83
2022/03/21 13:54:48;;;;;;;;;;;18.80;81.00;;;;;;4921620;29;19927;-89
2022/03/21 13:57:17;;;;;;;;;;;18.90;81.30;;;;;;4917989;29;20263;-84
2022/03/21 14:00:15;;;;;;;;;;;19.00;81.70;;;;;;4894971;29;19935;-88
2022/03/21 14:02:46;;;;;;;;;;;19.20;79.40;;;;;;4899075;29;19928;-89
2022/03/21 14:05:20;;;;;;;;;;;19.30;78.70;;;;;;4914408;29;19936;-84
2022/03/21 14:07:49;;;;;;;;;;;19.40;80.00;;;;;;4902335;29;19927;-85
2022/03/21 14:10:21;;;;;;;;;;;19.50;77.70;;;;;;4910766;29;19934;-85
2022/03/21 14:12:50;;;;;;;;;;;19.60;78.80;;;;;;4916723;29;19931;-84
2022/03/21 14:15:23;;;;;;;;;;;19.70;78.00;;;;;;4881088;29;19932;-85
2022/03/21 14:17:51;;;;;;;;;;;19.60;76.40;;;;;;4917068;29;19915;-86
2022/03/21 14:20:19;;;;;;;;;;;19.70;77.90;;;;;;4897410;29;19931;-86
2022/03/21 14:22:47;;;;;;;;;;;19.60;76.60;;;;;;4920233;29;19931;-84
2022/03/21 14:28:04;;;;;;;;;;;19.60;75.80;;;;;;4921653;29;20056;-84
2022/03/21 14:30:38;;;;;;;;;;;19.70;75.70;;;;;;4906484;29;20437;-87
2022/03/21 14:33:06;;;;;;;;;;;19.90;76.20;;;;;;4916135;29;19927;-84
2022/03/21 14:35:40;;;;;;;;;;;20.20;76.00;;;;;;4913370;29;19942;-84
2022/03/21 14:38:11;;;;;;;;;;;20.30;75.10;;;;;;4891209;29;19935;-84
2022/03/21 14:40:39;;;;;;;;;;;20.50;75.50;;;;;;4917937;29;19927;-85
2022/03/21 14:43:08;;;;;;;;;;;20.70;75.10;;;;;;4910911;29;19927;-83
2022/03/21 14:45:39;;;;;;;;;;;20.80;74.80;;;;;;4884058;29;19931;-83
2022/03/21 14:48:07;;;;;;;;;;;21.00;73.10;;;;;;4904796;29;19935;-86
2022/03/21 14:50:35;;;;;;;;;;;21.10;72.80;;;;;;4917410;29;19939;-84
2022/03/21 14:53:04;;;;;;;;;;;21.30;70.80;;;;;;4898171;29;20306;-84
2022/03/21 14:55:32;;;;;;;;;;;21.40;72.30;;;;;;4895084;29;19923;-84
2022/03/21 14:57:59;;;;;;;;;;;21.60;72.40;;;;;;4902195;29;20315;-86
2022/03/21 15:00:28;;;;;;;;;;;21.80;70.60;;;;;;4911571;29;19931;-88
2022/03/21 15:02:58;;;;;;;;;;;21.90;69.10;;;;;;4918555;29;20290;-87
2022/03/21 15:05:27;;;;;;;;;;;22.00;70.90;;;;;;4885372;29;20437;-87
2022/03/21 15:07:55;;;;;;;;;;;22.20;70.00;;;;;;4873945;29;19931;-84
2022/03/21 15:10:23;;;;;;;;;;;22.30;69.70;;;;;;4901353;29;19927;-84
2022/03/21 15:12:51;;;;;;;;;;;22.40;68.20;;;;;;4885876;29;19927;-86
2022/03/21 15:15:20;;;;;;;;;;;22.40;67.60;;;;;;4914276;29;20290;-88
2022/03/21 15:17:49;;;;;;;;;;;23.00;68.00;;;;;;4904145;29;19938;-81